createdAt,value
2022-09-12T00:00:11.832Z,14.80
2022-09-12T00:02:59.036Z,14.80
2022-09-12T00:05:46.573Z,14.70
2022-09-12T00:08:33.269Z,14.50
2022-09-12T00:11:20.042Z,14.50
2022-09-12T00:14:09.988Z,14.40
2022-09-12T00:16:59.249Z,14.30
2022-09-12T00:19:45.586Z,14.40
2022-09-12T00:22:32.114Z,14.60
2022-09-12T00:25:19.125Z,14.70
2022-09-12T00:28:05.605Z,14.40
2022-09-12T00:30:53.512Z,14.10
2022-09-12T00:33:40.441Z,13.90
2022-09-12T00:36:27.892Z,13.60
2022-09-12T00:39:17.414Z,13.70
2022-09-12T00:42:04.020Z,13.60
2022-09-12T00:44:53.828Z,13.60
2022-09-12T00:47:42.548Z,13.60
2022-09-12T00:50:29.528Z,13.50
2022-09-12T00:53:16.138Z,13.50
2022-09-12T00:56:03.157Z,13.50
2022-09-12T00:58:53.789Z,13.50
2022-09-12T01:01:43.424Z,13.50
2022-09-12T01:04:31.985Z,13.50
2022-09-12T01:07:19.032Z,13.40
2022-09-12T01:10:06.416Z,13.50
2022-09-12T01:12:52.785Z,13.70
2022-09-12T01:15:40.644Z,13.80
2022-09-12T01:18:33.215Z,13.90
2022-09-12T01:21:31.950Z,14.10
2022-09-12T01:24:52.763Z,14.30
2022-09-12T01:27:49.606Z,14.40
2022-09-12T01:30:48.469Z,14.40
2022-09-12T01:34:04.539Z,14.50
2022-09-12T01:37:00.217Z,14.50
2022-09-12T01:39:56.603Z,14.20
2022-09-12T01:42:52.101Z,14.00
2022-09-12T01:45:44.957Z,14.10
2022-09-12T01:48:37.842Z,14.10
2022-09-12T01:51:29.735Z,14.00
2022-09-12T01:54:21.267Z,14.10
2022-09-12T01:57:18.664Z,14.20
2022-09-12T02:00:10.614Z,14.30
2022-09-12T02:03:04.481Z,14.20
2022-09-12T02:06:01.703Z,14.10
2022-09-12T02:08:52.075Z,13.90
2022-09-12T02:11:43.835Z,13.70
2022-09-12T02:14:35.023Z,13.50
2022-09-12T02:17:24.480Z,13.50
2022-09-12T02:20:26.046Z,13.50
2022-09-12T02:23:28.470Z,13.50
2022-09-12T02:26:21.500Z,13.50
2022-09-12T02:29:10.019Z,13.30
2022-09-12T02:31:59.466Z,13.30
2022-09-12T02:34:52.386Z,13.40
2022-09-12T02:37:51.340Z,13.50
2022-09-12T02:40:39.581Z,13.40
2022-09-12T02:43:28.987Z,13.30
2022-09-12T02:46:21.879Z,13.30
2022-09-12T02:49:09.506Z,13.40
2022-09-12T02:51:56.721Z,13.60
2022-09-12T02:54:44.473Z,13.70
2022-09-12T02:57:33.087Z,13.80
2022-09-12T03:00:20.195Z,13.70
2022-09-12T03:03:25.254Z,13.80
2022-09-12T03:06:19.275Z,13.80
2022-09-12T03:09:14.805Z,13.70
2022-09-12T03:12:16.384Z,13.80
2022-09-12T03:15:28.795Z,13.80
2022-09-12T03:18:30.221Z,13.40
2022-09-12T03:21:25.444Z,13.60
2022-09-12T03:24:17.949Z,13.70
2022-09-12T03:27:10.882Z,13.70
2022-09-12T03:29:58.323Z,13.70
2022-09-12T03:32:48.121Z,13.60
2022-09-12T03:35:34.689Z,13.50
2022-09-12T03:38:21.119Z,13.30
2022-09-12T03:41:07.508Z,13.00
2022-09-12T03:43:54.068Z,12.80
2022-09-12T03:46:40.505Z,12.80
2022-09-12T03:49:28.121Z,12.90
2022-09-12T03:52:14.448Z,13.00
2022-09-12T03:55:01.052Z,13.10
2022-09-12T03:57:47.438Z,13.20
2022-09-12T04:00:34.205Z,13.20
2022-09-12T04:03:20.566Z,13.10
2022-09-12T04:06:09.611Z,12.90
2022-09-12T04:08:57.036Z,12.70
2022-09-12T04:11:43.241Z,12.70
2022-09-12T04:14:29.787Z,12.80
2022-09-12T04:17:16.370Z,12.80
2022-09-12T04:20:03.357Z,12.90
2022-09-12T04:22:51.203Z,12.80
2022-09-12T04:25:37.701Z,12.80
2022-09-12T04:28:24.644Z,12.70
2022-09-12T04:31:13.867Z,12.90
2022-09-12T04:34:02.136Z,12.90
2022-09-12T04:36:48.600Z,13.00
2022-09-12T04:39:36.431Z,13.00
2022-09-12T04:42:22.785Z,12.60
2022-09-12T04:45:09.697Z,12.30
2022-09-12T04:47:56.474Z,12.20
2022-09-12T04:50:42.973Z,12.20
2022-09-12T04:53:29.375Z,12.20
2022-09-12T04:56:17.796Z,12.40
2022-09-12T04:59:04.392Z,12.60
2022-09-12T05:01:51.128Z,12.90
2022-09-12T05:04:37.788Z,13.10
2022-09-12T05:07:24.408Z,13.30
2022-09-12T05:10:12.609Z,13.40
2022-09-12T05:13:00.473Z,13.50
2022-09-12T05:15:55.562Z,13.20
2022-09-12T05:18:42.898Z,13.40
2022-09-12T05:21:29.591Z,13.60
2022-09-12T05:24:16.245Z,13.80
2022-09-12T05:27:03.375Z,13.50
2022-09-12T05:29:51.334Z,13.50
2022-09-12T05:32:37.729Z,13.50
2022-09-12T05:35:24.197Z,13.80
2022-09-12T05:38:10.601Z,14.10
2022-09-12T05:41:06.137Z,14.30
2022-09-12T05:43:54.043Z,14.40
2022-09-12T05:46:43.525Z,14.60
2022-09-12T05:49:30.184Z,15.20
2022-09-12T05:52:17.162Z,15.80
2022-09-12T05:55:03.521Z,16.10
2022-09-12T05:57:49.840Z,16.80
2022-09-12T06:00:36.278Z,17.00
2022-09-12T06:03:24.040Z,17.50
2022-09-12T06:06:13.502Z,18.00
2022-09-12T06:09:01.823Z,18.30
2022-09-12T06:11:48.219Z,18.30
2022-09-12T06:14:34.904Z,18.50
2022-09-12T06:17:22.117Z,18.70
2022-09-12T06:20:10.497Z,18.80
2022-09-12T06:22:56.916Z,18.90
2022-09-12T06:25:48.745Z,18.90
2022-09-12T06:28:36.754Z,19.70
2022-09-12T06:31:25.599Z,20.10
2022-09-12T06:34:14.908Z,19.80
2022-09-12T06:37:03.871Z,20.00
2022-09-12T06:39:50.586Z,20.40
2022-09-12T06:42:37.609Z,21.00
2022-09-12T06:45:26.015Z,20.90
2022-09-12T06:48:12.254Z,21.10
2022-09-12T06:50:59.436Z,20.80
2022-09-12T06:53:48.559Z,20.40
2022-09-12T06:56:35.133Z,20.30
2022-09-12T06:59:21.673Z,20.90
2022-09-12T07:02:08.208Z,21.80
2022-09-12T07:04:54.883Z,22.70
2022-09-12T07:07:41.514Z,22.70
2022-09-12T07:10:30.880Z,21.90
2022-09-12T07:13:17.420Z,22.40
2022-09-12T07:16:05.393Z,22.20
2022-09-12T07:18:52.945Z,22.60
2022-09-12T07:21:40.962Z,23.00
2022-09-12T07:24:27.473Z,23.60
2022-09-12T07:27:15.586Z,23.80
2022-09-12T07:30:02.268Z,24.30
2022-09-12T07:32:48.562Z,25.00
2022-09-12T07:35:35.304Z,24.90
2022-09-12T07:38:21.875Z,25.00
2022-09-12T07:41:12.646Z,25.40
2022-09-12T07:44:02.169Z,25.40
2022-09-12T07:46:48.781Z,25.80
2022-09-12T07:49:35.998Z,25.80
2022-09-12T07:52:22.594Z,25.70
2022-09-12T07:55:09.590Z,25.40
2022-09-12T07:57:56.456Z,25.60
2022-09-12T08:00:45.867Z,25.80
2022-09-12T08:03:32.997Z,26.40
2022-09-12T08:06:23.912Z,26.00
2022-09-12T08:09:12.102Z,26.10
2022-09-12T08:11:59.010Z,26.20
2022-09-12T08:14:45.263Z,26.20
2022-09-12T08:17:33.078Z,26.40
2022-09-12T08:20:19.629Z,26.40
2022-09-12T08:23:06.042Z,26.00
2022-09-12T08:25:52.649Z,26.20
2022-09-12T08:28:41.017Z,26.40
2022-09-12T08:31:28.975Z,26.60
2022-09-12T08:34:19.106Z,26.60
2022-09-12T08:37:06.615Z,27.00
2022-09-12T08:39:53.661Z,26.90
2022-09-12T08:42:52.045Z,27.20
2022-09-12T08:45:50.154Z,27.20
2022-09-12T08:48:37.445Z,26.90
2022-09-12T08:51:26.054Z,27.00
2022-09-12T08:54:20.535Z,27.10
2022-09-12T08:57:10.297Z,27.20
2022-09-12T08:59:57.360Z,27.10
2022-09-12T09:03:25.012Z,27.40
2022-09-12T09:06:23.115Z,27.40
2022-09-12T09:09:20.720Z,27.60
2022-09-12T09:12:18.097Z,27.60
2022-09-12T09:15:35.533Z,27.60
2022-09-12T09:18:24.980Z,27.90
2022-09-12T09:21:15.892Z,28.30
2022-09-12T09:24:06.438Z,28.30
2022-09-12T09:26:58.656Z,28.30
2022-09-12T09:29:48.646Z,28.40
2022-09-12T09:32:39.076Z,28.50
2022-09-12T09:35:39.404Z,28.80
2022-09-12T09:38:35.811Z,28.80
2022-09-12T09:41:42.949Z,28.30
2022-09-12T09:44:31.783Z,28.40
2022-09-12T09:47:20.589Z,28.40
2022-09-12T09:50:07.804Z,28.30
2022-09-12T09:52:57.895Z,28.30
2022-09-12T09:55:45.623Z,28.10
2022-09-12T09:58:34.019Z,28.20
2022-09-12T10:01:22.233Z,27.40
2022-09-12T10:04:19.817Z,27.30
2022-09-12T10:07:06.939Z,27.70
2022-09-12T10:10:07.600Z,27.60
2022-09-12T10:13:09.062Z,27.50
2022-09-12T10:16:01.123Z,28.10
2022-09-12T10:18:51.001Z,28.10
2022-09-12T10:21:41.604Z,27.60
2022-09-12T10:24:31.721Z,27.40
2022-09-12T10:27:21.880Z,27.50
2022-09-12T10:30:18.365Z,27.50
2022-09-12T10:33:10.034Z,27.70
2022-09-12T10:36:04.473Z,27.40
2022-09-12T10:38:53.703Z,27.00
2022-09-12T10:41:41.979Z,27.60
2022-09-12T10:44:30.665Z,27.30
2022-09-12T10:47:22.568Z,27.70
2022-09-12T10:50:28.870Z,28.10
2022-09-12T10:53:22.080Z,27.70
2022-09-12T10:56:12.026Z,26.70
2022-09-12T10:59:12.151Z,26.60
2022-09-12T11:02:02.339Z,26.30
2022-09-12T11:05:01.301Z,26.70
2022-09-12T11:07:50.596Z,27.40
2022-09-12T11:10:49.316Z,27.60
2022-09-12T11:13:56.572Z,27.00
2022-09-12T11:16:54.071Z,27.00
2022-09-12T11:20:10.347Z,27.80
2022-09-12T11:23:15.057Z,27.80
2022-09-12T11:26:12.461Z,28.40
2022-09-12T11:29:12.240Z,28.90
2022-09-12T11:32:23.699Z,28.90
2022-09-12T11:35:20.148Z,28.90
2022-09-12T11:38:24.345Z,28.50
2022-09-12T11:41:19.227Z,28.50
2022-09-12T11:44:16.303Z,28.40
2022-09-12T11:47:06.064Z,28.40
2022-09-12T11:49:54.334Z,28.50
2022-09-12T11:52:40.773Z,28.40
2022-09-12T11:55:33.044Z,28.60
2022-09-12T11:58:25.783Z,28.80
2022-09-12T12:01:16.175Z,28.20
2022-09-12T12:04:08.858Z,28.40
2022-09-12T12:07:05.818Z,27.80
2022-09-12T12:09:55.114Z,27.60
2022-09-12T12:12:43.634Z,27.90
2022-09-12T12:15:32.442Z,28.30
2022-09-12T12:18:23.024Z,28.50
2022-09-12T12:21:27.660Z,28.80
2022-09-12T12:24:17.349Z,28.20
2022-09-12T12:27:05.104Z,28.30
2022-09-12T12:29:51.623Z,27.90
2022-09-12T12:32:39.953Z,28.10
2022-09-12T12:35:40.626Z,28.20
2022-09-12T12:38:29.813Z,28.10
2022-09-12T12:41:45.284Z,28.30
2022-09-12T12:44:59.408Z,28.60
2022-09-12T12:47:48.492Z,29.00
2022-09-12T12:50:35.332Z,28.80
2022-09-12T12:53:25.683Z,28.50
2022-09-12T12:56:30.518Z,27.90
2022-09-12T12:59:21.329Z,27.70
2022-09-12T13:02:08.365Z,27.30
2022-09-12T13:04:57.957Z,27.50
2022-09-12T13:07:45.479Z,27.60
2022-09-12T13:10:32.793Z,27.70
2022-09-12T13:13:26.213Z,27.90
2022-09-12T13:16:13.264Z,27.80
2022-09-12T13:19:05.116Z,27.60
2022-09-12T13:22:02.108Z,27.20
2022-09-12T13:24:52.274Z,27.40
2022-09-12T13:27:38.724Z,27.50
2022-09-12T13:30:25.037Z,27.30
2022-09-12T13:33:18.950Z,27.10
2022-09-12T13:36:24.880Z,27.00
2022-09-12T13:39:18.635Z,26.60
2022-09-12T13:42:38.959Z,26.50
2022-09-12T13:45:27.661Z,26.60
2022-09-12T13:48:17.719Z,26.60
2022-09-12T13:51:05.968Z,26.60
2022-09-12T13:53:56.208Z,26.60
2022-09-12T13:56:50.090Z,26.40
2022-09-12T13:59:40.912Z,26.30
2022-09-12T14:02:29.633Z,26.20
2022-09-12T14:05:21.229Z,26.20
2022-09-12T14:08:10.138Z,26.10
2022-09-12T14:10:56.582Z,26.20
2022-09-12T14:13:44.930Z,26.10
2022-09-12T14:16:39.186Z,26.10
2022-09-12T14:19:27.126Z,26.10
2022-09-12T14:22:18.088Z,26.00
2022-09-12T14:25:05.017Z,26.00
2022-09-12T14:27:54.976Z,25.90
2022-09-12T14:30:43.236Z,25.90
2022-09-12T14:33:32.527Z,25.90
2022-09-12T14:36:24.096Z,25.80
2022-09-12T14:39:20.437Z,25.80
2022-09-12T14:42:12.858Z,25.80
2022-09-12T14:45:02.388Z,25.80
2022-09-12T14:47:52.826Z,25.90
2022-09-12T14:50:39.410Z,25.80
2022-09-12T14:53:32.532Z,25.90
2022-09-12T14:56:22.354Z,26.10
2022-09-12T14:59:29.469Z,26.20
2022-09-12T15:02:25.845Z,26.10
2022-09-12T15:05:26.324Z,25.90
2022-09-12T15:08:16.026Z,26.00
2022-09-12T15:11:02.511Z,26.00
2022-09-12T15:13:48.888Z,26.00
2022-09-12T15:16:35.236Z,25.90
2022-09-12T15:19:21.558Z,25.80
2022-09-12T15:22:11.355Z,25.80
2022-09-12T15:24:57.993Z,25.70
2022-09-12T15:27:44.587Z,25.70
2022-09-12T15:30:31.373Z,25.60
2022-09-12T15:33:18.090Z,25.60
2022-09-12T15:36:05.167Z,25.70
2022-09-12T15:38:53.781Z,25.60
2022-09-12T15:41:42.448Z,25.60
2022-09-12T15:44:28.817Z,25.70
2022-09-12T15:47:15.425Z,25.60
2022-09-12T15:50:01.738Z,25.50
2022-09-12T15:52:47.997Z,25.50
2022-09-12T15:55:35.921Z,25.50
2022-09-12T15:58:22.462Z,25.50
2022-09-12T16:01:11.097Z,25.50
2022-09-12T16:03:58.016Z,25.30
2022-09-12T16:06:44.425Z,25.30
2022-09-12T16:09:30.710Z,25.20
2022-09-12T16:12:18.361Z,25.20
2022-09-12T16:15:05.853Z,25.10
2022-09-12T16:17:52.518Z,25.10
2022-09-12T16:20:40.897Z,25.10
2022-09-12T16:23:27.824Z,25.10
2022-09-12T16:26:14.615Z,25.00
2022-09-12T16:29:02.630Z,25.00
2022-09-12T16:31:49.038Z,25.00
2022-09-12T16:34:35.400Z,25.00
2022-09-12T16:37:21.701Z,24.90
2022-09-12T16:40:09.261Z,25.00
2022-09-12T16:42:55.847Z,24.90
2022-09-12T16:45:43.393Z,24.90
2022-09-12T16:48:29.973Z,24.80
2022-09-12T16:51:17.773Z,24.80
2022-09-12T16:54:04.639Z,24.80
2022-09-12T16:56:50.981Z,24.70
2022-09-12T16:59:37.423Z,24.60
2022-09-12T17:02:25.089Z,24.50
2022-09-12T17:05:12.023Z,24.40
2022-09-12T17:07:58.363Z,24.20
2022-09-12T17:10:44.708Z,24.20
2022-09-12T17:13:46.900Z,24.10
2022-09-12T17:16:40.146Z,24.10
2022-09-12T17:19:29.730Z,24.10
2022-09-12T17:22:16.592Z,24.10
2022-09-12T17:25:03.031Z,24.10
2022-09-12T17:27:49.644Z,23.90
2022-09-12T17:30:36.432Z,23.70
2022-09-12T17:33:23.082Z,23.60
2022-09-12T17:36:14.909Z,23.30
2022-09-12T17:39:03.465Z,23.00
2022-09-12T17:41:51.822Z,22.80
2022-09-12T17:44:38.673Z,22.80
2022-09-12T17:47:25.204Z,22.50
2022-09-12T17:50:30.934Z,22.20
2022-09-12T17:53:20.210Z,22.10
2022-09-12T17:56:07.583Z,21.90
2022-09-12T17:58:54.281Z,21.60
2022-09-12T18:01:54.979Z,21.40
2022-09-12T18:04:45.698Z,21.10
2022-09-12T18:07:33.162Z,21.00
2022-09-12T18:10:21.062Z,20.80
2022-09-12T18:13:07.940Z,20.60
2022-09-12T18:15:54.675Z,20.40
2022-09-12T18:18:41.028Z,20.20
2022-09-12T18:21:28.141Z,19.90
2022-09-12T18:24:15.275Z,19.70
2022-09-12T18:27:03.884Z,19.60
2022-09-12T18:30:10.430Z,19.40
2022-09-12T18:32:56.624Z,19.30
2022-09-12T18:35:43.009Z,19.20
2022-09-12T18:38:29.452Z,19.10
2022-09-12T18:41:17.700Z,19.00
2022-09-12T18:44:05.604Z,19.10
2022-09-12T18:46:52.780Z,19.30
2022-09-12T18:49:39.173Z,19.20
2022-09-12T18:52:25.778Z,19.20
2022-09-12T18:55:12.365Z,19.20
2022-09-12T18:57:58.896Z,19.30
2022-09-12T19:00:48.273Z,19.20
2022-09-12T19:03:35.169Z,19.10
2022-09-12T19:06:23.224Z,19.00
2022-09-12T19:09:13.779Z,18.80
2022-09-12T19:12:00.627Z,18.70
2022-09-12T19:14:46.992Z,18.70
2022-09-12T19:17:34.692Z,18.40
2022-09-12T19:20:21.085Z,18.20
2022-09-12T19:23:07.418Z,17.90
2022-09-12T19:25:57.543Z,17.80
2022-09-12T19:28:44.578Z,17.60
2022-09-12T19:31:31.761Z,17.60
2022-09-12T19:34:19.989Z,17.50
2022-09-12T19:37:06.453Z,17.70
2022-09-12T19:39:53.132Z,17.80
2022-09-12T19:42:39.993Z,17.70
2022-09-12T19:45:26.422Z,17.70
2022-09-12T19:48:13.030Z,17.60
2022-09-12T19:51:02.004Z,17.50
2022-09-12T19:53:50.135Z,17.50
2022-09-12T19:56:36.676Z,17.50
2022-09-12T19:59:22.938Z,17.30
2022-09-12T20:02:09.394Z,17.20
2022-09-12T20:04:56.277Z,17.00
2022-09-12T20:07:44.201Z,17.00
2022-09-12T20:10:30.833Z,17.00
2022-09-12T20:13:17.380Z,17.10
2022-09-12T20:16:08.360Z,16.90
2022-09-12T20:18:56.617Z,16.90
2022-09-12T20:21:43.016Z,16.90
2022-09-12T20:24:31.046Z,16.90
2022-09-12T20:27:17.509Z,16.70
2022-09-12T20:30:04.882Z,16.80
2022-09-12T20:32:51.708Z,16.80
2022-09-12T20:35:38.099Z,16.80
2022-09-12T20:38:24.621Z,16.70
2022-09-12T20:41:13.323Z,16.80
2022-09-12T20:44:00.364Z,16.70
2022-09-12T20:46:47.022Z,16.60
2022-09-12T20:49:33.808Z,16.40
2022-09-12T20:52:20.310Z,16.20
2022-09-12T20:55:07.554Z,16.40
2022-09-12T20:57:55.697Z,16.40
2022-09-12T21:00:42.064Z,16.50
2022-09-12T21:03:28.369Z,16.60
2022-09-12T21:06:16.882Z,16.60
2022-09-12T21:09:03.639Z,16.70
2022-09-12T21:11:50.310Z,16.80
2022-09-12T21:14:38.313Z,16.80
2022-09-12T21:17:25.076Z,16.80
2022-09-12T21:20:12.614Z,16.90
2022-09-12T21:22:58.940Z,17.00
2022-09-12T21:25:52.162Z,17.00
2022-09-12T21:28:39.837Z,16.70
2022-09-12T21:31:28.026Z,16.60
2022-09-12T21:34:14.679Z,16.50
2022-09-12T21:37:01.217Z,16.30
2022-09-12T21:39:47.623Z,16.20
2022-09-12T21:42:33.980Z,16.30
2022-09-12T21:45:21.086Z,16.40
2022-09-12T21:48:09.657Z,16.50
2022-09-12T21:50:56.467Z,16.50
2022-09-12T21:53:42.836Z,16.40
2022-09-12T21:56:29.581Z,16.60
2022-09-12T21:59:15.885Z,16.60
2022-09-12T22:02:02.393Z,16.50
2022-09-12T22:04:50.513Z,16.60
2022-09-12T22:07:37.405Z,16.70
2022-09-12T22:10:25.040Z,16.80
2022-09-12T22:13:11.582Z,16.70
2022-09-12T22:15:58.120Z,16.70
2022-09-12T22:18:46.478Z,16.80
2022-09-12T22:21:34.497Z,16.70
2022-09-12T22:24:28.610Z,16.80
2022-09-12T22:27:15.210Z,16.60
2022-09-12T22:30:01.740Z,16.40
2022-09-12T22:32:49.606Z,16.50
2022-09-12T22:35:36.170Z,16.40
2022-09-12T22:38:25.994Z,16.50
2022-09-12T22:41:13.353Z,16.50
2022-09-12T22:44:00.084Z,16.50
2022-09-12T22:46:46.897Z,16.40
2022-09-12T22:49:33.761Z,16.40
2022-09-12T22:52:20.132Z,16.40
2022-09-12T22:55:08.616Z,16.40
2022-09-12T22:57:55.186Z,16.40
2022-09-12T23:00:46.397Z,16.40
2022-09-12T23:03:32.824Z,16.30
2022-09-12T23:06:19.452Z,16.20
2022-09-12T23:09:05.804Z,15.90
2022-09-12T23:11:53.407Z,15.90
2022-09-12T23:23:42.947Z,16.00
2022-09-12T23:26:29.569Z,16.10
2022-09-12T23:29:17.242Z,16.10
2022-09-12T23:32:04.281Z,16.10
2022-09-12T23:34:50.555Z,16.00
2022-09-12T23:37:36.861Z,16.00
2022-09-12T23:40:23.352Z,16.00
2022-09-12T23:43:10.117Z,16.10
2022-09-12T23:45:58.387Z,16.10
2022-09-12T23:48:45.610Z,16.00
2022-09-12T23:51:32.072Z,16.10
2022-09-12T23:54:18.454Z,16.10
2022-09-12T23:57:04.861Z,16.20
2022-09-12T23:59:51.305Z,16.30
